createdAt,value
2023-08-08T00:02:06.683Z,94734.75
2023-08-08T00:05:09.622Z,94724.94
2023-08-08T00:08:11.542Z,94724.75
2023-08-08T00:11:13.425Z,94720.06
2023-08-08T00:14:15.502Z,94725.59
2023-08-08T00:17:17.383Z,94720.66
2023-08-08T00:20:19.273Z,94718.63
2023-08-08T00:23:21.194Z,94735.63
2023-08-08T00:26:23.069Z,94736.22
2023-08-08T00:29:25.155Z,94740.72
2023-08-08T00:32:26.979Z,94747.84
2023-08-08T00:35:28.932Z,94746.19
2023-08-08T00:38:30.944Z,94749.25
2023-08-08T00:41:32.771Z,94747.84
2023-08-08T00:44:34.625Z,94743.13
2023-08-08T00:47:36.643Z,94746.63
2023-08-08T00:50:45.170Z,94753.81
2023-08-08T00:53:48.563Z,94756.88
2023-08-08T00:56:50.490Z,94760.16
2023-08-08T00:59:52.775Z,94761.00
2023-08-08T01:02:54.752Z,94765.69
2023-08-08T01:06:09.954Z,94765.31
2023-08-08T01:09:29.713Z,94774.50
2023-08-08T01:12:32.640Z,94777.53
2023-08-08T01:15:38.783Z,94772.88
2023-08-08T01:18:46.002Z,94770.16
2023-08-08T01:21:53.057Z,94778.34
2023-08-08T01:24:55.726Z,94781.00
2023-08-08T01:27:57.591Z,94777.75
2023-08-08T01:30:59.539Z,94769.41
2023-08-08T01:34:01.478Z,94768.41
2023-08-08T01:37:19.293Z,94767.13
2023-08-08T01:40:22.699Z,94774.34
2023-08-08T01:43:25.545Z,94778.00
2023-08-08T01:46:28.029Z,94773.94
2023-08-08T01:49:29.981Z,94779.31
2023-08-08T01:52:31.852Z,94786.25
2023-08-08T01:55:33.811Z,94789.47
2023-08-08T01:58:35.587Z,94791.56
2023-08-08T02:01:37.667Z,94789.94
2023-08-08T02:04:40.303Z,94792.78
2023-08-08T02:07:42.190Z,94793.19
2023-08-08T02:10:44.069Z,94783.81
2023-08-08T02:13:45.944Z,94788.53
2023-08-08T02:16:47.804Z,94786.44
2023-08-08T02:19:49.928Z,94785.66
2023-08-08T02:22:51.838Z,94797.72
2023-08-08T02:25:53.703Z,94782.41
2023-08-08T02:28:55.589Z,94795.25
2023-08-08T02:31:57.710Z,94792.63
2023-08-08T02:34:59.795Z,94800.97
2023-08-08T02:38:01.645Z,94796.91
2023-08-08T02:41:03.494Z,94794.88
2023-08-08T02:44:05.347Z,94796.47
2023-08-08T02:47:07.467Z,94803.72
2023-08-08T02:50:09.995Z,94801.03
2023-08-08T02:53:12.460Z,94809.47
2023-08-08T02:56:14.310Z,94800.06
2023-08-08T02:59:16.177Z,94801.28
2023-08-08T03:02:18.084Z,94807.59
2023-08-08T03:05:19.948Z,94818.63
2023-08-08T03:08:21.742Z,94820.50
2023-08-08T03:11:23.606Z,94824.66
2023-08-08T03:14:25.413Z,94829.88
2023-08-08T03:17:27.313Z,94832.09
2023-08-08T03:20:29.209Z,94833.94
2023-08-08T03:23:31.200Z,94841.16
2023-08-08T03:26:33.026Z,94841.31
2023-08-08T03:29:34.869Z,94832.69
2023-08-08T03:32:36.706Z,94846.44
2023-08-08T03:35:38.512Z,94843.31
2023-08-08T03:38:40.371Z,94842.78
2023-08-08T03:41:42.165Z,94842.31
2023-08-08T03:44:46.292Z,94842.44
2023-08-08T03:47:48.660Z,94843.13
2023-08-08T03:50:50.584Z,94840.72
2023-08-08T03:53:52.479Z,94842.75
2023-08-08T03:56:54.401Z,94849.81
2023-08-08T03:59:56.451Z,94853.56
2023-08-08T04:02:58.540Z,94853.06
2023-08-08T04:06:00.468Z,94855.00
2023-08-08T04:09:02.408Z,94856.44
2023-08-08T04:12:04.533Z,94862.94
2023-08-08T04:15:06.798Z,94850.31
2023-08-08T04:18:08.761Z,94862.56
2023-08-08T04:21:10.779Z,94869.91
2023-08-08T04:24:13.500Z,94879.41
2023-08-08T04:27:15.413Z,94884.53
2023-08-08T04:30:17.429Z,94883.31
2023-08-08T04:33:19.268Z,94882.66
2023-08-08T04:36:21.084Z,94890.72
2023-08-08T04:39:23.018Z,94893.88
2023-08-08T04:42:24.843Z,94892.94
2023-08-08T04:45:28.352Z,94898.56
2023-08-08T04:48:30.257Z,94899.38
2023-08-08T04:51:37.517Z,94908.13
2023-08-08T04:54:53.679Z,94911.94
2023-08-08T04:58:01.751Z,94912.75
2023-08-08T05:01:23.677Z,94911.75
2023-08-08T05:28:35.746Z,94941.44
2023-08-08T05:32:12.425Z,94938.44
2023-08-08T05:35:17.367Z,94935.44
2023-08-08T05:38:19.287Z,94947.19
2023-08-08T05:41:21.183Z,94946.50
2023-08-08T05:44:23.040Z,94960.75
2023-08-08T05:47:24.875Z,94967.47
2023-08-08T05:50:28.356Z,94977.72
2023-08-08T05:53:30.275Z,94989.22
2023-08-08T05:56:38.333Z,94989.88
2023-08-08T05:59:40.500Z,94985.91
2023-08-08T06:02:42.581Z,94975.22
2023-08-08T06:05:44.711Z,94981.66
2023-08-08T06:08:46.554Z,94974.44
2023-08-08T06:12:06.992Z,94987.47
2023-08-08T06:15:09.750Z,94987.06
2023-08-08T06:18:11.621Z,94982.41
2023-08-08T06:21:15.830Z,94979.63
2023-08-08T06:24:17.734Z,94986.41
2023-08-08T06:27:19.546Z,94978.47
2023-08-08T06:30:21.620Z,94992.47
2023-08-08T06:33:23.490Z,94997.19
2023-08-08T06:36:25.344Z,95002.75
2023-08-08T06:39:27.401Z,95000.16
2023-08-08T06:42:29.250Z,94991.47
2023-08-08T06:45:31.165Z,95000.72
2023-08-08T06:48:32.992Z,94983.88
2023-08-08T06:51:35.012Z,94993.47
2023-08-08T06:54:36.950Z,94996.81
2023-08-08T06:57:38.819Z,95001.78
2023-08-08T07:00:40.882Z,95003.28
2023-08-08T07:03:42.831Z,94996.13
2023-08-08T07:06:48.128Z,95007.03
2023-08-08T07:09:50.254Z,95009.75
2023-08-08T07:12:52.678Z,95006.91
2023-08-08T07:15:54.593Z,95014.78
2023-08-08T07:18:56.880Z,95024.25
2023-08-08T07:21:59.250Z,95026.25
2023-08-08T07:25:01.590Z,95017.63
2023-08-08T07:28:06.682Z,95017.03
2023-08-08T07:31:08.591Z,95015.44
2023-08-08T07:34:10.464Z,95020.47
2023-08-08T07:37:12.299Z,95024.16
2023-08-08T07:40:21.599Z,95028.16
2023-08-08T07:43:23.442Z,95030.28
2023-08-08T07:46:25.655Z,95023.34
2023-08-08T07:49:27.486Z,95034.66
2023-08-08T07:52:29.373Z,95031.19
2023-08-08T07:55:31.352Z,95032.19
2023-08-08T07:58:33.669Z,95023.63
2023-08-08T08:01:35.704Z,95029.31
2023-08-08T08:04:37.559Z,95027.13
2023-08-08T08:07:40.043Z,95022.06
2023-08-08T08:10:41.938Z,95026.91
2023-08-08T08:13:44.161Z,95039.59
2023-08-08T08:16:46.669Z,95039.59
2023-08-08T08:19:48.626Z,95034.56
2023-08-08T08:22:50.632Z,95042.81
2023-08-08T08:25:52.625Z,95054.41
2023-08-08T08:28:54.524Z,95048.59
2023-08-08T08:31:56.511Z,95053.16
2023-08-08T08:34:58.336Z,95058.09
2023-08-08T08:38:00.144Z,95039.47
2023-08-08T08:41:04.450Z,95032.28
2023-08-08T08:44:09.369Z,95036.69
2023-08-08T08:47:14.154Z,95042.56
2023-08-08T08:50:17.068Z,95029.31
2023-08-08T08:53:19.119Z,95042.63
2023-08-08T08:56:21.529Z,95038.75
2023-08-08T08:59:23.670Z,95048.44
2023-08-08T09:02:25.566Z,95037.91
2023-08-08T09:05:27.825Z,95038.91
2023-08-08T09:08:30.673Z,95043.63
2023-08-08T09:11:33.036Z,95041.22
2023-08-08T09:14:35.320Z,95050.47
2023-08-08T09:17:47.493Z,95042.75
2023-08-08T09:20:52.190Z,95051.09
2023-08-08T09:23:54.011Z,95048.91
2023-08-08T09:26:55.850Z,95051.94
2023-08-08T09:29:57.942Z,95060.53
2023-08-08T09:33:02.079Z,95054.50
2023-08-08T09:36:04.189Z,95057.94
2023-08-08T09:39:06.289Z,95055.09
2023-08-08T09:42:11.222Z,95058.47
2023-08-08T09:45:13.999Z,95075.97
2023-08-08T09:48:17.521Z,95056.59
2023-08-08T09:51:21.571Z,95067.78
2023-08-08T09:54:24.762Z,95065.50
2023-08-08T09:57:27.162Z,95056.09
2023-08-08T10:00:31.510Z,95053.88
2023-08-08T10:03:34.456Z,95062.56
2023-08-08T10:06:37.143Z,95050.00
2023-08-08T10:09:39.883Z,95059.94
2023-08-08T10:12:42.767Z,95061.06
2023-08-08T10:15:44.747Z,95067.38
2023-08-08T10:18:56.837Z,95060.69
2023-08-08T10:22:01.841Z,95052.94
2023-08-08T10:25:05.750Z,95059.72
2023-08-08T10:31:23.441Z,95061.91
2023-08-08T10:34:38.243Z,95055.59
2023-08-08T10:37:40.922Z,95041.91
2023-08-08T10:40:44.807Z,95047.09
2023-08-08T10:43:58.438Z,95055.53
2023-08-08T10:47:01.668Z,95050.25
2023-08-08T10:50:22.749Z,95044.44
2023-08-08T10:53:28.081Z,95047.25
2023-08-08T10:56:32.478Z,95042.94
2023-08-08T10:59:38.901Z,95042.38
2023-08-08T11:02:42.113Z,95044.78
2023-08-08T11:05:52.086Z,95043.03
2023-08-08T11:08:55.667Z,95040.19
2023-08-08T11:11:57.828Z,95046.16
2023-08-08T11:15:00.225Z,95040.94
2023-08-08T11:18:03.394Z,95027.41
2023-08-08T11:21:18.285Z,95021.63
2023-08-08T11:24:21.170Z,95022.41
2023-08-08T11:30:33.599Z,95042.25
2023-08-08T11:33:35.600Z,95040.81
2023-08-08T11:36:38.496Z,95050.16
2023-08-08T11:39:40.527Z,95048.28
2023-08-08T11:42:43.617Z,95053.19
2023-08-08T11:45:45.488Z,95043.13
2023-08-08T11:48:48.256Z,95050.28
2023-08-08T11:51:50.074Z,95051.28
2023-08-08T11:54:54.877Z,95035.78
2023-08-08T11:58:01.305Z,95041.03
2023-08-08T12:01:03.458Z,95035.63
2023-08-08T12:04:07.946Z,95033.22
2023-08-08T12:07:11.068Z,95046.97
2023-08-08T12:10:20.925Z,95037.84
2023-08-08T12:13:24.611Z,95041.53
2023-08-08T12:16:32.266Z,95033.94
2023-08-08T12:19:35.500Z,95035.41
2023-08-08T12:22:37.991Z,95030.78
2023-08-08T12:25:40.380Z,95028.94
2023-08-08T12:28:42.601Z,95037.78
2023-08-08T12:31:44.508Z,95033.59
2023-08-08T12:34:46.491Z,95035.03
2023-08-08T12:37:48.501Z,95037.09
2023-08-08T12:40:50.787Z,95038.09
2023-08-08T12:43:53.489Z,95033.53
2023-08-08T12:46:55.509Z,95026.97
2023-08-08T12:49:57.469Z,95029.78
2023-08-08T12:52:59.505Z,95023.25
2023-08-08T12:56:01.686Z,95034.94
2023-08-08T12:59:04.150Z,95028.66
2023-08-08T13:02:06.105Z,95023.59
2023-08-08T13:05:08.300Z,95031.97
2023-08-08T13:08:10.242Z,95033.59
2023-08-08T13:11:12.248Z,95037.16
2023-08-08T13:14:14.048Z,95030.84
2023-08-08T13:17:15.986Z,95043.00
2023-08-08T13:20:17.899Z,95043.84
2023-08-08T13:23:19.789Z,95032.44
2023-08-08T13:26:21.688Z,95032.19
2023-08-08T13:29:23.645Z,95039.19
2023-08-08T13:32:25.639Z,95029.06
2023-08-08T13:35:27.560Z,95027.25
2023-08-08T13:38:29.414Z,95037.53
2023-08-08T13:41:31.691Z,95048.31
2023-08-08T13:44:33.506Z,95046.16
2023-08-08T13:47:35.508Z,95048.84
2023-08-08T13:50:37.362Z,95045.91
2023-08-08T13:53:39.222Z,95047.16
2023-08-08T13:56:41.052Z,95042.69
2023-08-08T13:59:43.113Z,95045.00
2023-08-08T14:02:44.996Z,95037.91
2023-08-08T14:05:47.217Z,95036.69
2023-08-08T14:08:49.567Z,95044.09
2023-08-08T14:11:51.534Z,95050.06
2023-08-08T14:14:53.331Z,95057.09
2023-08-08T14:17:55.667Z,95063.22
2023-08-08T14:20:57.705Z,95055.09
2023-08-08T14:23:59.550Z,95072.03
2023-08-08T14:27:01.866Z,95065.69
2023-08-08T14:30:05.109Z,95072.38
2023-08-08T14:33:07.206Z,95076.38
2023-08-08T14:36:09.605Z,95079.00
2023-08-08T14:39:12.267Z,95078.28
2023-08-08T14:42:14.577Z,95076.97
2023-08-08T14:45:16.478Z,95070.06
2023-08-08T14:48:18.404Z,95075.75
2023-08-08T14:51:21.269Z,95090.78
2023-08-08T14:54:23.341Z,95096.13
2023-08-08T14:57:25.500Z,95103.25
2023-08-08T15:00:27.456Z,95097.31
2023-08-08T15:03:29.416Z,95101.31
2023-08-08T15:06:31.403Z,95101.63
2023-08-08T15:09:33.244Z,95105.06
2023-08-08T15:12:35.142Z,95093.97
2023-08-08T15:15:37.243Z,95096.59
2023-08-08T15:18:39.205Z,95086.38
2023-08-08T15:21:41.072Z,95092.22
2023-08-08T15:24:43.208Z,95084.31
2023-08-08T15:27:45.149Z,95083.50
2023-08-08T15:30:47.127Z,95065.03
2023-08-08T15:33:49.312Z,95075.13
2023-08-08T15:36:51.832Z,95066.28
2023-08-08T15:39:53.972Z,95075.34
2023-08-08T15:42:56.148Z,95070.13
2023-08-08T15:46:00.143Z,95072.94
2023-08-08T15:49:02.674Z,95072.81
2023-08-08T15:52:04.786Z,95060.59
2023-08-08T15:55:07.110Z,95071.53
2023-08-08T15:58:09.058Z,95075.72
2023-08-08T16:01:11.210Z,95076.88
2023-08-08T16:04:16.044Z,95078.06
2023-08-08T16:07:19.450Z,95083.47
2023-08-08T16:10:21.271Z,95087.91
2023-08-08T16:13:23.459Z,95088.28
2023-08-08T16:16:25.452Z,95087.53
2023-08-08T16:19:27.375Z,95089.13
2023-08-08T16:22:29.229Z,95088.03
2023-08-08T16:25:31.157Z,95091.72
2023-08-08T16:28:33.535Z,95096.47
2023-08-08T16:31:35.917Z,95092.59
2023-08-08T16:34:37.933Z,95106.59
2023-08-08T16:37:39.795Z,95112.38
2023-08-08T16:40:41.763Z,95101.38
2023-08-08T16:43:43.690Z,95102.50
2023-08-08T16:46:45.681Z,95115.88
2023-08-08T16:49:47.894Z,95107.50
2023-08-08T16:52:50.035Z,95107.53
2023-08-08T16:55:52.120Z,95099.53
2023-08-08T16:58:54.168Z,95103.09
2023-08-08T17:01:56.212Z,95098.31
2023-08-08T17:04:58.137Z,95100.59
2023-08-08T17:08:00.268Z,95096.53
2023-08-08T17:11:02.221Z,95100.88
2023-08-08T17:14:04.630Z,95093.72
2023-08-08T17:17:06.500Z,95105.84
2023-08-08T17:20:08.924Z,95115.16
2023-08-08T17:23:11.115Z,95114.91
2023-08-08T17:26:14.067Z,95117.19
2023-08-08T17:29:16.083Z,95113.28
2023-08-08T17:32:18.225Z,95105.47
2023-08-08T17:35:20.198Z,95106.47
2023-08-08T17:38:22.033Z,95117.81
2023-08-08T17:41:23.859Z,95122.91
2023-08-08T17:44:25.738Z,95108.41
2023-08-08T17:47:27.665Z,95116.19
2023-08-08T17:50:29.508Z,95120.09
2023-08-08T17:53:31.403Z,95129.53
2023-08-08T17:56:33.240Z,95127.91
2023-08-08T17:59:35.043Z,95124.22
2023-08-08T18:02:40.205Z,95128.56
2023-08-08T18:05:42.172Z,95132.47
2023-08-08T18:08:44.108Z,95138.41
2023-08-08T18:11:46.782Z,95137.78
2023-08-08T18:14:49.957Z,95145.78
2023-08-08T18:17:51.959Z,95152.13
2023-08-08T18:20:54.777Z,95149.25
2023-08-08T18:23:57.071Z,95160.75
2023-08-08T18:27:00.823Z,95163.41
2023-08-08T18:30:02.742Z,95160.94
2023-08-08T18:33:04.852Z,95163.41
2023-08-08T18:36:08.139Z,95153.34
2023-08-08T18:39:11.595Z,95164.63
2023-08-08T18:42:16.224Z,95167.09
2023-08-08T18:45:18.108Z,95164.22
2023-08-08T18:48:20.790Z,95174.03
2023-08-08T18:51:22.832Z,95181.44
2023-08-08T18:54:25.556Z,95175.66
2023-08-08T18:57:27.800Z,95172.41
2023-08-08T19:00:29.819Z,95177.88
2023-08-08T19:03:32.169Z,95178.69
2023-08-08T19:06:34.312Z,95181.81
2023-08-08T19:09:36.341Z,95170.53
2023-08-08T19:12:38.469Z,95167.66
2023-08-08T19:15:40.666Z,95174.75
2023-08-08T19:18:42.498Z,95178.47
2023-08-08T19:21:44.667Z,95174.94
2023-08-08T19:24:46.724Z,95179.03
2023-08-08T19:27:48.837Z,95178.47
2023-08-08T19:30:50.806Z,95178.81
2023-08-08T19:34:05.597Z,95186.16
2023-08-08T19:37:12.694Z,95182.69
2023-08-08T19:40:14.691Z,95185.94
2023-08-08T19:43:17.214Z,95195.13
2023-08-08T19:46:19.184Z,95192.38
2023-08-08T19:49:21.133Z,95193.00
2023-08-08T19:52:24.192Z,95190.53
2023-08-08T19:55:26.239Z,95184.88
2023-08-08T19:58:28.242Z,95182.72
2023-08-08T20:01:30.875Z,95182.91
2023-08-08T20:04:32.785Z,95184.97
2023-08-08T20:07:34.883Z,95182.72
2023-08-08T20:10:36.904Z,95181.25
2023-08-08T20:13:38.838Z,95192.50
2023-08-08T20:16:40.861Z,95192.56
2023-08-08T20:19:43.015Z,95191.53
2023-08-08T20:22:45.070Z,95189.91
2023-08-08T20:25:46.921Z,95197.44
2023-08-08T20:28:49.648Z,95190.91
2023-08-08T20:31:51.496Z,95191.50
2023-08-08T20:34:53.343Z,95199.72
2023-08-08T20:37:55.182Z,95199.72
2023-08-08T20:40:57.112Z,95198.66
2023-08-08T20:43:59.086Z,95184.50
2023-08-08T20:47:01.308Z,95186.75
2023-08-08T20:50:06.386Z,95187.84
2023-08-08T20:53:11.940Z,95187.25
2023-08-08T20:56:13.698Z,95186.81
2023-08-08T20:59:15.538Z,95185.47
2023-08-08T21:02:18.822Z,95177.00
2023-08-08T21:05:23.171Z,95175.84
2023-08-08T21:08:25.019Z,95176.66
2023-08-08T21:11:26.900Z,95176.28
2023-08-08T21:14:28.729Z,95181.22
2023-08-08T21:17:30.663Z,95182.06
2023-08-08T21:20:32.563Z,95188.81
2023-08-08T21:23:34.394Z,95183.50
2023-08-08T21:26:39.934Z,95175.72
2023-08-08T21:29:44.839Z,95171.84
2023-08-08T21:32:46.734Z,95182.53
2023-08-08T21:35:49.292Z,95176.41
2023-08-08T21:38:53.593Z,95176.41
2023-08-08T21:41:55.929Z,95163.44
2023-08-08T21:44:58.339Z,95177.19
2023-08-08T21:48:00.723Z,95158.69
2023-08-08T21:51:03.068Z,95167.75
2023-08-08T21:54:05.605Z,95168.16
2023-08-08T21:57:08.012Z,95174.13
2023-08-08T22:00:15.790Z,95155.25
2023-08-08T22:03:18.129Z,95169.59
2023-08-08T22:06:20.047Z,95168.97
2023-08-08T22:09:21.927Z,95179.63
2023-08-08T22:12:23.793Z,95173.31
2023-08-08T22:15:25.584Z,95166.16
2023-08-08T22:18:27.699Z,95172.09
2023-08-08T22:21:29.640Z,95168.97
2023-08-08T22:24:34.100Z,95167.53
2023-08-08T22:27:36.236Z,95161.59
2023-08-08T22:30:38.216Z,95162.06
2023-08-08T22:33:40.265Z,95153.66
2023-08-08T22:36:42.109Z,95168.59
2023-08-08T22:39:43.941Z,95157.31
2023-08-08T22:42:45.730Z,95157.09
2023-08-08T22:45:47.584Z,95161.00
2023-08-08T22:48:49.408Z,95154.03
2023-08-08T22:51:51.324Z,95159.59
2023-08-08T22:54:54.328Z,95155.06
2023-08-08T22:57:57.473Z,95147.72
2023-08-08T23:01:04.982Z,95146.06
2023-08-08T23:04:16.142Z,95151.81
2023-08-08T23:07:19.459Z,95144.81
2023-08-08T23:10:21.326Z,95147.72
2023-08-08T23:13:23.467Z,95151.97
2023-08-08T23:16:25.327Z,95156.06
2023-08-08T23:19:27.118Z,95148.47
2023-08-08T23:22:28.913Z,95152.16
2023-08-08T23:25:30.716Z,95151.31
2023-08-08T23:28:32.598Z,95148.66
2023-08-08T23:31:34.561Z,95155.19
2023-08-08T23:34:36.512Z,95157.41
2023-08-08T23:37:39.107Z,95156.94
2023-08-08T23:40:40.877Z,95158.97
2023-08-08T23:43:44.430Z,95153.84
2023-08-08T23:46:46.381Z,95150.06
2023-08-08T23:49:48.306Z,95151.94
2023-08-08T23:52:50.480Z,95144.53
2023-08-08T23:55:52.357Z,95145.75
2023-08-08T23:58:54.162Z,95147.47
